Time;durP1;ratioP1;P1;durP2;ratioP2;P2;SDS_P1;SDS_P2;PMS_P1;PMS_P2;Temp;Humidity;BMP_temperature;BMP_pressure;BME280_temperature;BME280_humidity;BME280_pressure;Samples;Min_cycle;Max_cycle;Signal;HPM_P1;HPM_P2
2022/04/18 00:02:19;;;;;;;4.60;2.10;;;23.00;37.00;;;;;;5039428;28;92928;-70
2022/04/18 00:04:48;;;;;;;2.63;1.70;;;23.00;37.00;;;;;;5039700;28;96380;-70
2022/04/18 00:07:16;;;;;;;5.87;1.70;;;23.00;37.00;;;;;;5040157;27;91986;-70
2022/04/18 00:09:44;;;;;;;3.27;2.20;;;22.90;37.60;;;;;;5041329;27;91344;-70
2022/04/18 00:12:13;;;;;;;3.83;1.70;;;22.90;37.00;;;;;;5060155;27;96103;-70
2022/04/18 00:14:41;;;;;;;2.37;2.17;;;22.90;37.00;;;;;;5057945;27;94019;-71
2022/04/18 00:17:10;;;;;;;2.10;1.90;;;23.00;37.00;;;;;;5050853;27;94630;-69
2022/04/18 00:19:38;;;;;;;3.47;1.70;;;22.90;37.00;;;;;;5039412;27;92030;-70
2022/04/18 00:22:06;;;;;;;2.40;1.90;;;23.00;37.10;;;;;;5039332;28;94155;-69
2022/04/18 00:24:34;;;;;;;2.20;2.00;;;22.90;37.00;;;;;;5039501;28;94124;-70
2022/04/18 00:27:02;;;;;;;2.00;1.63;;;22.90;37.00;;;;;;5042192;27;92017;-69
2022/04/18 00:29:32;;;;;;;3.70;1.80;;;23.00;37.00;;;;;;5070874;27;93536;-69
2022/04/18 00:32:00;;;;;;;4.00;2.13;;;22.90;37.00;;;;;;5056161;27;93156;-70
2022/04/18 00:34:28;;;;;;;1.90;1.67;;;22.90;37.00;;;;;;5042890;27;96893;-70
2022/04/18 00:36:56;;;;;;;4.43;1.87;;;22.90;37.00;;;;;;5045329;27;92088;-70
2022/04/18 00:39:24;;;;;;;3.13;1.83;;;22.90;37.00;;;;;;5059667;27;92048;-69
2022/04/18 00:41:52;;;;;;;4.03;1.93;;;22.90;37.00;;;;;;5056904;27;95071;-69
2022/04/18 00:44:20;;;;;;;2.43;1.90;;;22.80;36.90;;;;;;5040065;27;97320;-69
2022/04/18 00:46:50;;;;;;;2.70;1.80;;;22.80;36.90;;;;;;5039492;27;91961;-69
2022/04/18 00:49:18;;;;;;;2.07;1.63;;;22.80;37.00;;;;;;5038945;27;92193;-69
2022/04/18 00:51:46;;;;;;;1.93;1.63;;;22.80;37.00;;;;;;5039091;27;94256;-69
2022/04/18 00:54:14;;;;;;;5.83;1.73;;;22.80;37.00;;;;;;5039114;27;93843;-69
2022/04/18 00:56:42;;;;;;;3.97;1.87;;;22.80;37.00;;;;;;5039390;28;91773;-69
2022/04/18 00:59:10;;;;;;;1.63;1.40;;;22.80;37.00;;;;;;5043646;27;91385;-69
2022/04/18 01:01:40;;;;;;;1.60;1.50;;;22.80;37.00;;;;;;5038367;28;94451;-69
2022/04/18 01:04:09;;;;;;;2.73;1.83;;;22.80;37.10;;;;;;5042916;27;93964;-69
2022/04/18 01:06:38;;;;;;;5.07;2.60;;;22.80;37.10;;;;;;5050569;27;93063;-70
2022/04/18 01:09:06;;;;;;;3.20;1.90;;;22.70;37.10;;;;;;5039781;27;92395;-69
2022/04/18 01:11:34;;;;;;;1.83;1.53;;;22.70;37.10;;;;;;5038706;27;94625;-69
2022/04/18 01:14:03;;;;;;;2.30;1.90;;;22.80;37.10;;;;;;5039622;27;93904;-68
2022/04/18 01:16:33;;;;;;;2.27;2.07;;;22.70;37.10;;;;;;5038573;28;92128;-69
2022/04/18 01:19:04;;;;;;;2.47;1.53;;;22.70;37.80;;;;;;5038731;27;92084;-68
2022/04/18 01:21:33;;;;;;;1.77;1.40;;;22.70;37.10;;;;;;5038006;28;92019;-69
2022/04/18 01:24:01;;;;;;;2.47;1.50;;;22.70;37.10;;;;;;5042343;27;96675;-69
2022/04/18 01:29:34;;;;;;;1.73;1.60;;;22.70;37.10;;;;;;5046095;27;92123;-69
2022/04/18 01:32:03;;;;;;;6.43;1.80;;;22.70;37.10;;;;;;5038757;27;94556;-69
2022/04/18 01:34:31;;;;;;;2.30;1.53;;;22.70;37.10;;;;;;5038135;28;93767;-70
2022/04/18 01:37:00;;;;;;;2.07;1.80;;;22.70;37.20;;;;;;5038037;28;92127;-69
2022/04/18 01:39:28;;;;;;;3.13;1.77;;;22.70;37.20;;;;;;5037816;27;92631;-69
2022/04/18 01:41:56;;;;;;;1.97;1.60;;;22.70;37.20;;;;;;5047943;27;94899;-69
2022/04/18 01:44:24;;;;;;;1.70;1.60;;;22.70;37.20;;;;;;5039254;27;92882;-69
2022/04/18 01:46:52;;;;;;;3.63;2.00;;;22.70;37.20;;;;;;5038657;28;92032;-69
2022/04/18 01:49:20;;;;;;;1.30;1.20;;;22.70;37.20;;;;;;5046297;27;91402;-69
2022/04/18 01:51:48;;;;;;;1.70;1.50;;;22.70;37.20;;;;;;5044087;27;93128;-68
2022/04/18 01:54:18;;;;;;;1.63;1.50;;;22.70;37.20;;;;;;5048685;27;93935;-70
2022/04/18 01:56:46;;;;;;;1.57;1.20;;;22.70;37.30;;;;;;5038365;27;93085;-69
2022/04/18 01:59:14;;;;;;;3.43;1.63;;;22.70;37.30;;;;;;5039300;27;91967;-69
2022/04/18 02:01:42;;;;;;;3.17;1.77;;;22.70;37.30;;;;;;5037931;28;94593;-69
2022/04/18 02:04:10;;;;;;;1.47;1.20;;;22.70;37.30;;;;;;5045251;27;93940;-69
2022/04/18 02:06:38;;;;;;;3.30;1.60;;;22.60;37.30;;;;;;5056900;27;91966;-70
2022/04/18 02:09:06;;;;;;;2.53;1.67;;;22.60;37.30;;;;;;5041127;27;92612;-69
2022/04/18 02:11:35;;;;;;;1.53;1.40;;;22.70;37.40;;;;;;5058423;27;93573;-69
2022/04/18 02:14:03;;;;;;;1.30;1.20;;;22.60;37.30;;;;;;5056350;27;96729;-69
2022/04/18 02:16:31;;;;;;;1.83;1.60;;;22.60;37.30;;;;;;5058499;27;92112;-69
2022/04/18 02:18:59;;;;;;;3.17;1.77;;;22.60;37.40;;;;;;5042561;27;91961;-69
2022/04/18 02:21:28;;;;;;;4.03;1.43;;;22.60;37.40;;;;;;5056820;27;94924;-69
2022/04/18 02:23:56;;;;;;;1.93;1.50;;;22.60;37.40;;;;;;5047425;27;93727;-69
2022/04/18 02:26:24;;;;;;;2.57;1.53;;;22.60;37.40;;;;;;5037974;28;92086;-69
2022/04/18 02:28:53;;;;;;;1.80;1.47;;;22.60;37.40;;;;;;5038577;27;93602;-70
2022/04/18 02:31:21;;;;;;;1.57;1.33;;;22.60;37.40;;;;;;5042324;27;94560;-69
2022/04/18 02:33:49;;;;;;;1.17;1.00;;;22.60;37.40;;;;;;5037715;28;93032;-69
2022/04/18 02:36:17;;;;;;;2.23;1.30;;;22.60;37.50;;;;;;5037720;28;92155;-69
2022/04/18 02:38:45;;;;;;;1.80;1.20;;;22.60;37.50;;;;;;5053754;27;91413;-70
2022/04/18 02:41:13;;;;;;;1.97;1.60;;;22.60;37.40;;;;;;5038643;27;92236;-69
2022/04/18 02:43:41;;;;;;;1.77;1.50;;;22.60;37.40;;;;;;5037640;27;93844;-70
2022/04/18 02:46:10;;;;;;;2.20;1.10;;;22.60;37.40;;;;;;5047156;27;93112;-69
2022/04/18 02:48:43;;;;;;;2.70;1.40;;;22.60;37.50;;;;;;5055639;27;92140;-69
2022/04/18 02:51:12;;;;;;;1.53;1.20;;;22.60;37.40;;;;;;5058110;27;94768;-70
2022/04/18 02:53:40;;;;;;;1.60;1.40;;;22.60;37.40;;;;;;5043566;27;94091;-69
2022/04/18 02:56:08;;;;;;;1.20;1.10;;;22.60;37.50;;;;;;5037218;28;92374;-69
2022/04/18 02:58:36;;;;;;;1.47;1.37;;;22.60;37.50;;;;;;5047335;27;92170;-69
2022/04/18 03:01:04;;;;;;;2.23;1.30;;;22.60;37.50;;;;;;5057408;27;94171;-69
2022/04/18 03:03:33;;;;;;;1.20;1.10;;;22.50;37.40;;;;;;5043944;27;96121;-69
2022/04/18 03:06:01;;;;;;;3.93;1.20;;;22.50;37.40;;;;;;5054907;27;92078;-69
2022/04/18 03:08:29;;;;;;;1.87;1.40;;;22.50;38.10;;;;;;5058666;27;92103;-70
2022/04/18 03:11:07;;;;;;;2.43;1.43;;;22.50;37.50;;;;;;5060007;27;96244;-70
2022/04/18 03:13:36;;;;;;;1.90;1.17;;;22.50;37.50;;;;;;5053562;27;95425;-69
2022/04/18 03:16:05;;;;;;;3.17;1.50;;;22.50;37.50;;;;;;5042861;27;91827;-69
2022/04/18 03:18:36;;;;;;;1.83;1.10;;;22.40;37.50;;;;;;5055208;27;92041;-70
2022/04/18 03:21:04;;;;;;;1.60;1.17;;;22.40;37.50;;;;;;5060208;27;93066;-69
2022/04/18 03:23:32;;;;;;;2.70;1.07;;;22.40;37.50;;;;;;5060691;27;93789;-69
2022/04/18 03:26:00;;;;;;;1.23;1.00;;;22.50;37.50;;;;;;5061003;27;92143;-68
2022/04/18 03:28:28;;;;;;;2.40;1.50;;;22.40;37.50;;;;;;5054264;27;92688;-68
2022/04/18 03:30:56;;;;;;;1.40;1.30;;;22.40;37.50;;;;;;5040849;28;93135;-69
2022/04/18 03:33:24;;;;;;;1.70;1.20;;;22.40;37.50;;;;;;5040078;28;92131;-69
2022/04/18 03:41:21;;;;;;;1.90;1.40;;;22.40;37.50;;;;;;5041286;27;93102;-68
2022/04/18 03:43:51;;;;;;;2.73;1.10;;;22.40;37.60;;;;;;5040742;27;95074;-68
2022/04/18 03:46:19;;;;;;;3.63;1.03;;;22.30;37.50;;;;;;5040715;28;92037;-69
2022/04/18 03:48:47;;;;;;;1.33;1.10;;;22.40;37.50;;;;;;5042197;27;92086;-69
2022/04/18 03:51:17;;;;;;;1.33;0.97;;;22.30;37.50;;;;;;5044166;27;94584;-69
2022/04/18 03:53:45;;;;;;;0.83;0.83;;;22.30;37.50;;;;;;5060746;27;96266;-69
2022/04/18 03:56:13;;;;;;;1.00;1.00;;;22.30;37.50;;;;;;5060113;27;92036;-69
2022/04/18 03:58:41;;;;;;;1.60;1.10;;;22.30;37.50;;;;;;5054209;27;93246;-69
2022/04/18 04:01:09;;;;;;;1.23;1.00;;;22.40;37.60;;;;;;5038983;28;93902;-69
2022/04/18 04:03:37;;;;;;;0.97;0.87;;;22.30;37.50;;;;;;5043503;27;97488;-69
2022/04/18 04:06:05;;;;;;;3.10;1.33;;;22.40;37.60;;;;;;5060348;27;92143;-68
2022/04/18 04:08:34;;;;;;;2.57;1.20;;;22.30;37.50;;;;;;5049726;27;92361;-68
2022/04/18 04:11:02;;;;;;;1.37;0.77;;;22.30;37.50;;;;;;5039291;28;94314;-69
2022/04/18 04:13:30;;;;;;;2.60;1.47;;;22.40;37.60;;;;;;5072045;27;94687;-69
2022/04/18 04:15:58;;;;;;;3.40;1.23;;;22.30;37.50;;;;;;5039363;27;92054;-69
2022/04/18 04:18:26;;;;;;;4.53;1.40;;;22.40;37.60;;;;;;5040001;27;93820;-69
2022/04/18 04:20:54;;;;;;;0.77;0.77;;;22.30;37.50;;;;;;5039184;28;96631;-69
2022/04/18 04:23:22;;;;;;;1.63;0.87;;;22.30;37.50;;;;;;5039092;27;92702;-69
2022/04/18 04:26:11;;;;;;;1.23;0.90;;;22.30;37.50;;;;;;5039753;28;93097;-69
2022/04/18 04:28:39;;;;;;;0.93;0.80;;;22.30;37.60;;;;;;5040133;27;92177;-69
2022/04/18 04:31:10;;;;;;;1.20;1.10;;;22.30;37.60;;;;;;5038512;28;94087;-69
2022/04/18 04:33:38;;;;;;;1.00;0.90;;;22.30;37.60;;;;;;5045669;27;92076;-69
2022/04/18 04:36:06;;;;;;;1.30;1.20;;;22.30;37.60;;;;;;5059930;27;92043;-70
2022/04/18 04:38:35;;;;;;;1.80;1.10;;;22.30;37.60;;;;;;5059425;27;92151;-70
2022/04/18 04:41:06;;;;;;;1.33;1.00;;;22.30;37.60;;;;;;5059262;27;94133;-69
2022/04/18 04:43:35;;;;;;;1.20;0.90;;;22.20;37.60;;;;;;5050629;27;92874;-70
2022/04/18 04:46:03;;;;;;;2.03;0.90;;;22.20;37.60;;;;;;5052088;27;92855;-69
2022/04/18 04:48:31;;;;;;;0.87;0.87;;;22.20;37.60;;;;;;5059543;27;92060;-69
2022/04/18 04:50:59;;;;;;;1.03;0.90;;;22.20;37.60;;;;;;5059125;27;95040;-69
2022/04/18 04:53:27;;;;;;;1.27;1.00;;;22.20;37.60;;;;;;5050899;27;94860;-69
2022/04/18 04:55:55;;;;;;;1.33;1.00;;;22.20;37.60;;;;;;5039501;28;92088;-69
2022/04/18 04:58:23;;;;;;;1.57;1.10;;;22.20;37.60;;;;;;5039202;27;91966;-69
2022/04/18 05:00:52;;;;;;;1.53;1.13;;;22.20;37.60;;;;;;5043082;27;94484;-69
2022/04/18 05:03:21;;;;;;;6.00;1.37;;;22.20;37.60;;;;;;5048334;27;95604;-68
2022/04/18 05:05:49;;;;;;;1.80;0.90;;;22.20;37.60;;;;;;5039268;27;92007;-69
2022/04/18 05:08:21;;;;;;;0.90;0.70;;;22.30;37.60;;;;;;5039076;27;92810;-69
2022/04/18 05:10:49;;;;;;;0.67;0.67;;;22.30;37.60;;;;;;5038750;28;94090;-69
2022/04/18 05:13:17;;;;;;;0.60;0.60;;;22.30;37.50;;;;;;5038252;28;93815;-69
2022/04/18 05:15:45;;;;;;;0.50;0.50;;;22.50;37.60;;;;;;5038594;27;93003;-69
2022/04/18 05:18:15;;;;;;;0.70;0.67;;;22.50;37.50;;;;;;5038844;28;92007;-69
2022/04/18 05:20:43;;;;;;;1.20;1.10;;;22.50;37.40;;;;;;5037350;28;97573;-69
2022/04/18 05:23:11;;;;;;;0.80;0.80;;;22.60;37.50;;;;;;5037898;27;92928;-69
2022/04/18 05:25:39;;;;;;;3.53;0.83;;;22.60;37.50;;;;;;5038607;28;92017;-69
2022/04/18 05:28:07;;;;;;;0.87;0.80;;;22.70;37.40;;;;;;5036524;27;92161;-69
2022/04/18 05:30:36;;;;;;;0.60;0.60;;;22.70;37.40;;;;;;5037611;28;96111;-69
2022/04/18 05:33:04;;;;;;;0.80;0.80;;;22.70;37.40;;;;;;5038621;27;92966;-69
2022/04/18 05:35:35;;;;;;;0.93;0.83;;;22.70;37.30;;;;;;5034544;27;92276;-69
2022/04/18 05:38:03;;;;;;;1.17;1.00;;;22.70;37.30;;;;;;5036541;27;92539;-69
2022/04/18 05:40:31;;;;;;;6.77;0.73;;;22.70;37.30;;;;;;5036713;27;94562;-69
2022/04/18 05:43:01;;;;;;;0.90;0.80;;;22.80;37.40;;;;;;5039610;27;94819;-68
2022/04/18 05:45:29;;;;;;;1.00;0.90;;;22.80;37.40;;;;;;5040584;27;92374;-67
2022/04/18 05:47:58;;;;;;;1.20;0.70;;;22.80;37.40;;;;;;5036269;27;93834;-67
2022/04/18 05:50:26;;;;;;;1.63;1.10;;;22.80;37.40;;;;;;5037913;27;92987;-67
2022/04/18 05:52:55;;;;;;;0.93;0.93;;;22.90;37.50;;;;;;5038018;27;93827;-68
2022/04/18 05:55:23;;;;;;;1.77;1.30;;;22.90;37.60;;;;;;5049980;27;92060;-69
2022/04/18 05:57:52;;;;;;;1.40;0.70;;;22.90;37.60;;;;;;5052467;27;91275;-68
2022/04/18 06:00:20;;;;;;;1.43;0.77;;;22.90;37.70;;;;;;5037387;28;94293;-67
2022/04/18 06:02:48;;;;;;;1.37;0.80;;;23.00;37.80;;;;;;5037188;28;93093;-71
2022/04/18 06:05:16;;;;;;;2.60;0.70;;;23.00;37.90;;;;;;5038697;27;93185;-69
2022/04/18 06:07:45;;;;;;;1.23;0.97;;;22.90;38.70;;;;;;5035549;28;92031;-69
2022/04/18 06:10:15;;;;;;;1.90;0.90;;;22.90;38.10;;;;;;5037287;27;94136;-68
2022/04/18 06:12:43;;;;;;;1.00;0.90;;;22.90;38.20;;;;;;5037151;27;92789;-69
2022/04/18 06:15:11;;;;;;;2.60;0.77;;;22.90;38.30;;;;;;5037929;28;92027;-68
2022/04/18 06:17:39;;;;;;;1.30;0.77;;;22.90;38.40;;;;;;5037622;27;92330;-69
2022/04/18 06:20:08;;;;;;;5.43;1.07;;;22.90;38.50;;;;;;5036853;27;93133;-68
2022/04/18 06:22:36;;;;;;;4.20;0.90;;;22.90;38.60;;;;;;5036740;27;93715;-69
2022/04/18 06:25:05;;;;;;;0.87;0.77;;;23.00;38.80;;;;;;5037350;28;92212;-69
2022/04/18 06:27:35;;;;;;;2.33;1.20;;;22.90;38.90;;;;;;5017983;28;92066;-68
2022/04/18 06:30:03;;;;;;;3.33;1.50;;;23.00;39.10;;;;;;5018112;28;95515;-68
2022/04/18 06:32:35;;;;;;;1.80;1.00;;;23.00;39.10;;;;;;5037544;28;93471;-68
2022/04/18 06:35:03;;;;;;;2.80;1.60;;;23.00;39.20;;;;;;5037871;27;91973;-68
2022/04/18 06:37:32;;;;;;;2.87;1.57;;;23.00;39.20;;;;;;5036621;27;92200;-68
2022/04/18 06:40:00;;;;;;;1.77;1.33;;;23.10;39.40;;;;;;5040630;27;95902;-67
2022/04/18 06:42:28;;;;;;;4.83;1.40;;;23.10;39.40;;;;;;5041369;28;92544;-68
2022/04/18 06:44:58;;;;;;;5.43;1.73;;;23.10;39.40;;;;;;5041273;27;92133;-69
2022/04/18 06:47:26;;;;;;;7.33;1.53;;;23.10;39.50;;;;;;5041237;27;91237;-69
2022/04/18 06:49:53;;;;;;;5.37;1.77;;;23.10;39.50;;;;;;5039547;27;94163;-68
2022/04/18 06:52:23;;;;;;;4.80;1.43;;;23.10;39.60;;;;;;5040298;27;92764;-68
2022/04/18 06:54:51;;;;;;;2.67;1.90;;;23.10;39.60;;;;;;5033175;27;96326;-69
2022/04/18 06:57:18;;;;;;;3.20;1.37;;;23.20;39.60;;;;;;5059069;27;93244;-70
2022/04/18 06:59:46;;;;;;;2.93;1.67;;;23.20;39.60;;;;;;5037655;27;93475;-69
2022/04/18 07:02:15;;;;;;;2.73;1.57;;;23.20;39.60;;;;;;5038575;27;93788;-69
2022/04/18 07:04:43;;;;;;;5.13;1.70;;;23.20;39.60;;;;;;5038771;27;93233;-70
2022/04/18 07:07:11;;;;;;;4.93;1.90;;;23.10;39.60;;;;;;5045073;27;92116;-70
2022/04/18 07:09:40;;;;;;;1.43;1.17;;;23.10;39.60;;;;;;5048525;27;96849;-70
2022/04/18 07:12:09;;;;;;;3.93;1.53;;;23.10;39.60;;;;;;5041712;27;93886;-69
2022/04/18 07:14:37;;;;;;;3.10;1.83;;;23.10;39.60;;;;;;5040941;27;92172;-71
2022/04/18 07:17:06;;;;;;;2.83;1.60;;;23.10;39.60;;;;;;5047195;27;92977;-71
2022/04/18 07:19:35;;;;;;;2.53;1.50;;;23.10;39.70;;;;;;5049091;27;95406;-70
2022/04/18 07:22:03;;;;;;;2.73;1.53;;;23.10;39.80;;;;;;5045165;27;98074;-70
2022/04/18 07:24:31;;;;;;;1.20;1.10;;;23.10;39.90;;;;;;5047906;27;92055;-70
2022/04/18 07:27:01;;;;;;;2.23;1.10;;;23.10;40.60;;;;;;5048489;27;92247;-70
2022/04/18 07:29:31;;;;;;;1.83;1.30;;;23.10;40.00;;;;;;5055700;27;92471;-69
2022/04/18 07:31:59;;;;;;;4.17;1.40;;;23.10;40.00;;;;;;5044885;27;93860;-71
2022/04/18 07:34:29;;;;;;;3.37;1.40;;;23.10;40.00;;;;;;5042116;27;92892;-69
2022/04/18 07:36:58;;;;;;;2.83;1.53;;;23.10;40.20;;;;;;5050941;27;91383;-70
2022/04/18 07:39:26;;;;;;;4.10;1.30;;;23.10;40.20;;;;;;5034847;27;94142;-70
2022/04/18 07:41:55;;;;;;;3.20;1.60;;;23.10;40.20;;;;;;5043156;27;96022;-69
2022/04/18 07:44:23;;;;;;;1.80;0.97;;;23.20;41.10;;;;;;5042315;27;93139;-70
2022/04/18 07:46:51;;;;;;;1.73;1.30;;;23.20;40.40;;;;;;5046648;27;92138;-71
2022/04/18 07:49:19;;;;;;;3.07;1.03;;;23.20;40.40;;;;;;5041528;27;93733;-69
2022/04/18 07:51:47;;;;;;;2.47;1.43;;;23.20;40.50;;;;;;5033057;27;94008;-70
2022/04/18 07:54:18;;;;;;;2.13;1.53;;;23.20;40.50;;;;;;5030359;27;92554;-69
2022/04/18 07:56:47;;;;;;;2.07;1.13;;;23.20;40.50;;;;;;5038718;27;92045;-70
2022/04/18 07:59:15;;;;;;;2.13;1.70;;;23.20;40.50;;;;;;5037793;27;94137;-72
2022/04/18 08:01:43;;;;;;;1.90;0.97;;;23.20;40.40;;;;;;5039786;27;93858;-69
2022/04/18 08:04:11;;;;;;;3.60;1.73;;;23.20;40.40;;;;;;5039470;27;92222;-69
2022/04/18 08:06:39;;;;;;;1.80;1.27;;;23.20;40.50;;;;;;5033659;27;92191;-70
2022/04/18 08:09:07;;;;;;;0.80;0.80;;;23.20;40.50;;;;;;5033472;27;94122;-69
2022/04/18 08:11:37;;;;;;;2.93;1.23;;;23.20;40.50;;;;;;5038356;27;98252;-71
2022/04/18 08:14:05;;;;;;;1.37;0.87;;;23.20;40.50;;;;;;5038421;27;93359;-70
2022/04/18 08:16:33;;;;;;;3.27;1.17;;;23.20;40.60;;;;;;5032591;27;92219;-70
2022/04/18 08:19:01;;;;;;;6.80;1.10;;;23.20;40.60;;;;;;5035544;27;93700;-70
2022/04/18 08:21:29;;;;;;;1.10;1.00;;;23.20;40.60;;;;;;5041312;27;93943;-70
2022/04/18 08:23:59;;;;;;;1.97;1.23;;;23.30;40.70;;;;;;5042814;27;92120;-71
2022/04/18 08:26:30;;;;;;;1.47;1.07;;;23.20;40.60;;;;;;5036935;27;91898;-72
2022/04/18 08:29:01;;;;;;;1.13;1.00;;;23.20;40.60;;;;;;5041690;27;94122;-69
2022/04/18 08:31:29;;;;;;;1.70;1.00;;;23.20;40.60;;;;;;5047574;27;93120;-70
2022/04/18 08:33:57;;;;;;;1.10;1.00;;;23.20;40.60;;;;;;5043060;27;92968;-70
2022/04/18 08:36:25;;;;;;;1.50;1.40;;;23.20;40.60;;;;;;5043027;27;92973;-70
2022/04/18 08:38:53;;;;;;;2.13;0.83;;;23.10;40.60;;;;;;5041067;27;94134;-70
2022/04/18 08:41:22;;;;;;;2.73;1.20;;;23.20;40.60;;;;;;5040112;27;93747;-71
2022/04/18 08:43:51;;;;;;;2.27;1.00;;;23.20;40.70;;;;;;5038469;27;92011;-71
2022/04/18 08:46:20;;;;;;;0.90;0.90;;;23.20;41.10;;;;;;5043385;27;92103;-71
2022/04/18 08:54:22;;;;;;;3.63;1.27;;;23.20;40.70;;;;;;5049591;27;92155;-70
2022/04/18 08:56:50;;;;;;;1.50;1.13;;;23.20;40.70;;;;;;5048726;27;93009;-71
2022/04/18 08:59:18;;;;;;;1.47;1.00;;;23.20;40.70;;;;;;5042483;27;95241;-70
2022/04/18 09:01:52;;;;;;;1.77;1.30;;;23.20;40.70;;;;;;5044034;27;98173;-71
2022/04/18 09:04:20;;;;;;;1.10;1.00;;;23.20;40.80;;;;;;5046246;27;92169;-71
2022/04/18 09:06:48;;;;;;;1.27;1.03;;;23.20;40.70;;;;;;5052246;27;93528;-71
2022/04/18 09:09:17;;;;;;;1.43;0.90;;;23.20;40.70;;;;;;5039146;27;95319;-71
2022/04/18 09:11:46;;;;;;;2.40;1.23;;;23.20;40.70;;;;;;5035552;27;92938;-71
2022/04/18 09:14:15;;;;;;;2.93;1.23;;;23.20;40.80;;;;;;5039507;27;94038;-70
2022/04/18 09:16:44;;;;;;;3.03;1.03;;;23.20;40.80;;;;;;5038121;28;92714;-70
2022/04/18 09:19:14;;;;;;;2.43;1.20;;;23.20;40.80;;;;;;5037701;28;94368;-71
2022/04/18 09:21:42;;;;;;;1.50;1.37;;;23.20;40.80;;;;;;5036059;28;93878;-71
2022/04/18 09:24:31;;;;;;;1.20;0.90;;;23.20;40.80;;;;;;5030644;27;94312;-71
2022/04/18 09:27:06;;;;;;;1.30;1.20;;;23.20;40.90;;;;;;5032864;27;92130;-70
2022/04/18 09:29:38;;;;;;;5.33;1.10;;;23.20;40.80;;;;;;5037014;28;95959;-71
2022/04/18 09:32:10;;;;;;;5.30;1.30;;;23.20;40.80;;;;;;5040087;28;93713;-71
2022/04/18 09:34:39;;;;;;;2.10;1.40;;;23.20;40.80;;;;;;5041729;28;92203;-71
2022/04/18 09:37:12;;;;;;;1.10;1.00;;;23.20;40.80;;;;;;5036488;27;93260;-71
2022/04/18 09:39:44;;;;;;;2.47;1.20;;;23.20;40.90;;;;;;5036845;27;95292;-70
2022/04/18 09:42:14;;;;;;;2.07;1.47;;;23.20;40.80;;;;;;5033722;27;93360;-71
2022/04/18 09:44:42;;;;;;;1.47;1.03;;;23.20;40.80;;;;;;5036257;27;92372;-71
2022/04/18 09:47:15;;;;;;;3.67;1.40;;;23.20;40.80;;;;;;5033870;28;92149;-71
2022/04/18 09:49:45;;;;;;;1.87;1.17;;;23.20;40.80;;;;;;5034968;27;95146;-71
2022/04/18 09:52:15;;;;;;;1.57;1.47;;;23.20;40.70;;;;;;5037227;27;95421;-71
2022/04/18 09:54:45;;;;;;;5.40;1.60;;;23.20;40.70;;;;;;5036368;28;92122;-71
2022/04/18 09:57:21;;;;;;;1.80;1.60;;;23.20;40.60;;;;;;5036887;28;92153;-71
2022/04/18 09:59:49;;;;;;;2.13;1.50;;;23.20;40.50;;;;;;5023015;27;94233;-71
2022/04/18 10:02:17;;;;;;;2.63;1.53;;;23.20;40.40;;;;;;5048995;27;94706;-70
2022/04/18 10:04:47;;;;;;;5.40;2.23;;;23.20;40.30;;;;;;5058390;27;91951;-71
2022/04/18 10:07:16;;;;;;;2.40;1.53;;;23.20;40.20;;;;;;5045658;27;91361;-70
2022/04/18 10:09:44;;;;;;;2.77;1.60;;;23.30;40.10;;;;;;5037451;27;94084;-74
2022/04/18 10:12:15;;;;;;;3.27;1.93;;;23.30;40.00;;;;;;5031268;27;93856;-72
2022/04/18 10:14:44;;;;;;;4.53;2.43;;;23.30;39.90;;;;;;5046079;27;92989;-70
2022/04/18 10:17:12;;;;;;;4.77;2.00;;;23.30;39.90;;;;;;5037184;27;92068;-72
2022/04/18 10:19:58;;;;;;;4.63;2.40;;;23.40;39.90;;;;;;5038599;27;92139;-70
2022/04/18 10:22:38;;;;;;;4.43;2.30;;;23.30;39.80;;;;;;5033300;27;95639;-71
2022/04/18 10:25:10;;;;;;;3.87;2.20;;;23.40;39.80;;;;;;5040641;27;93519;-70
2022/04/18 10:28:09;;;;;;;3.70;2.57;;;23.40;39.80;;;;;;5040825;27;92714;-71
2022/04/18 10:30:41;;;;;;;8.47;2.57;;;23.40;39.80;;;;;;5036828;27;96348;-72
2022/04/18 10:33:12;;;;;;;4.67;2.43;;;23.40;39.70;;;;;;5033526;27;93811;-71
2022/04/18 10:36:01;;;;;;;3.90;2.07;;;23.40;39.60;;;;;;5034232;28;92355;-72
2022/04/18 10:38:33;;;;;;;5.73;2.77;;;23.40;39.60;;;;;;5031284;27;93592;-71
2022/04/18 10:44:01;;;;;;;6.40;3.00;;;23.50;39.70;;;;;;5100704;27;88637;-72
2022/04/18 10:46:29;;;;;;;4.73;2.43;;;23.50;39.80;;;;;;5070112;27;88669;-72
2022/04/18 10:48:58;;;;;;;3.20;2.23;;;23.60;39.80;;;;;;5062328;27;88664;-72
2022/04/18 10:51:30;;;;;;;8.60;2.83;;;23.60;39.80;;;;;;5065068;27;90829;-73
2022/04/18 10:54:12;;;;;;;3.27;2.30;;;23.60;39.90;;;;;;5069458;27;89832;-73
2022/04/18 10:56:53;;;;;;;3.30;2.10;;;23.70;40.00;;;;;;5058798;27;88431;-73
2022/04/18 10:59:23;;;;;;;4.17;2.00;;;23.70;39.90;;;;;;5061382;27;89000;-73
2022/04/18 11:01:52;;;;;;;4.40;2.57;;;23.70;39.90;;;;;;5064290;27;89575;-72
2022/04/18 11:04:24;;;;;;;5.10;2.73;;;23.80;40.00;;;;;;5054821;27;89391;-73
2022/04/18 11:07:03;;;;;;;4.23;2.27;;;23.80;40.00;;;;;;5057275;27;89193;-74
2022/04/18 11:09:34;;;;;;;5.67;3.10;;;23.80;40.00;;;;;;5055899;27;89664;-74
2022/04/18 11:12:08;;;;;;;3.40;2.53;;;23.80;40.00;;;;;;5064322;27;91029;-73
2022/04/18 11:14:48;;;;;;;3.93;2.10;;;23.90;40.10;;;;;;5064617;27;89568;-73
2022/04/18 11:17:26;;;;;;;3.63;2.20;;;23.90;40.10;;;;;;5065943;27;88383;-74
2022/04/18 11:19:54;;;;;;;3.63;2.00;;;23.90;40.10;;;;;;5058145;27;88646;-76
2022/04/18 11:22:23;;;;;;;3.93;2.50;;;24.00;40.10;;;;;;5067555;27;89689;-74
2022/04/18 11:25:00;;;;;;;2.30;1.90;;;23.90;40.00;;;;;;5067368;27;88954;-76
2022/04/18 11:27:36;;;;;;;3.57;2.17;;;24.00;40.00;;;;;;5060658;27;89029;-75
2022/04/18 11:30:11;;;;;;;3.20;2.20;;;24.00;40.00;;;;;;5061672;27;88582;-76
2022/04/18 11:32:40;;;;;;;4.13;2.23;;;24.00;40.00;;;;;;5066831;27;90162;-75
2022/04/18 11:35:13;;;;;;;3.50;2.23;;;24.00;39.90;;;;;;5063170;27;89207;-76
2022/04/18 11:37:43;;;;;;;6.97;2.80;;;24.10;40.00;;;;;;5061754;27;88332;-75
2022/04/18 11:40:12;;;;;;;3.83;2.43;;;24.10;40.00;;;;;;5066035;27;88435;-76
2022/04/18 11:42:40;;;;;;;5.20;2.40;;;24.10;40.00;;;;;;5071705;27;91747;-75
2022/04/18 11:45:11;;;;;;;4.97;2.37;;;24.10;40.00;;;;;;5063178;27;89513;-76
2022/04/18 11:47:43;;;;;;;4.83;2.83;;;24.10;40.00;;;;;;5073817;27;88733;-76
2022/04/18 11:50:11;;;;;;;4.03;2.30;;;24.10;40.00;;;;;;5069451;27;88598;-76
2022/04/18 11:52:40;;;;;;;4.17;2.47;;;24.10;40.00;;;;;;5074044;27;90596;-76
2022/04/18 11:55:09;;;;;;;3.70;2.53;;;24.10;40.10;;;;;;5047896;27;88938;-76
2022/04/18 11:57:38;;;;;;;4.00;2.40;;;24.10;40.10;;;;;;5051792;27;88551;-75
2022/04/18 12:00:09;;;;;;;4.13;2.50;;;24.10;40.10;;;;;;5048388;27;89279;-75
2022/04/18 12:08:11;;;;;;;3.63;2.33;;;24.10;40.20;;;;;;5051286;27;89135;-75
2022/04/18 12:10:42;;;;;;;4.57;2.50;;;24.10;40.20;;;;;;5045500;27;88586;-76
2022/04/18 12:13:12;;;;;;;5.07;2.20;;;24.10;40.20;;;;;;5041789;27;89486;-76
2022/04/18 12:15:42;;;;;;;5.23;2.17;;;24.10;40.20;;;;;;5038561;27;89371;-75
2022/04/18 12:18:11;;;;;;;3.40;1.90;;;24.10;40.10;;;;;;5041544;27;88955;-76
2022/04/18 12:20:44;;;;;;;4.83;1.83;;;24.10;40.10;;;;;;5042387;27;88932;-75
2022/04/18 12:23:16;;;;;;;3.83;2.23;;;24.20;40.10;;;;;;5040791;27;88828;-76
2022/04/18 12:25:45;;;;;;;3.13;2.47;;;24.20;40.00;;;;;;5054664;27;92386;-75
2022/04/18 12:28:14;;;;;;;3.87;1.90;;;24.20;39.90;;;;;;5050697;27;89030;-75
2022/04/18 12:30:43;;;;;;;4.77;2.13;;;24.20;39.80;;;;;;5053705;27;88687;-75
2022/04/18 12:33:12;;;;;;;3.07;1.70;;;24.20;39.80;;;;;;5049266;27;89467;-73
2022/04/18 12:35:41;;;;;;;4.03;1.97;;;24.30;39.80;;;;;;5045255;27;90823;-75
2022/04/18 12:38:10;;;;;;;1.87;1.67;;;24.30;39.70;;;;;;5048808;27;88487;-75
2022/04/18 12:40:39;;;;;;;2.67;1.87;;;24.30;39.70;;;;;;5050595;27;88720;-75
2022/04/18 12:43:09;;;;;;;1.67;1.57;;;24.30;39.60;;;;;;5044779;27;89844;-75
2022/04/18 12:45:52;;;;;;;3.40;1.97;;;24.30;39.50;;;;;;5047763;27;90551;-76
2022/04/18 12:48:23;;;;;;;4.73;1.50;;;24.30;39.40;;;;;;5043137;27;88170;-75
2022/04/18 12:50:51;;;;;;;4.43;1.73;;;24.40;39.40;;;;;;5047837;27;88555;-75
2022/04/18 12:53:19;;;;;;;2.13;1.37;;;24.40;39.40;;;;;;5042455;27;88487;-75
2022/04/18 12:55:47;;;;;;;4.67;1.80;;;24.40;39.30;;;;;;5051207;27;89050;-75
2022/04/18 12:58:17;;;;;;;2.47;1.30;;;24.40;39.20;;;;;;5049937;27;88494;-75
2022/04/18 13:00:50;;;;;;;4.43;1.83;;;24.40;39.10;;;;;;5048345;27;89290;-76
2022/04/18 13:03:20;;;;;;;2.87;1.63;;;24.40;39.00;;;;;;5041064;27;91009;-76
2022/04/18 13:05:49;;;;;;;2.63;1.50;;;24.50;39.00;;;;;;5035826;27;89869;-76
2022/04/18 13:08:18;;;;;;;3.10;1.70;;;24.50;39.60;;;;;;5045309;27;89020;-77
2022/04/18 13:10:46;;;;;;;2.47;1.50;;;24.50;38.90;;;;;;5040150;27;88656;-74
2022/04/18 13:13:15;;;;;;;2.50;1.40;;;24.50;38.90;;;;;;5042750;27;90089;-73
2022/04/18 13:15:45;;;;;;;6.50;1.37;;;24.50;38.90;;;;;;5039518;27;89542;-73
2022/04/18 13:18:21;;;;;;;5.87;1.80;;;24.60;38.90;;;;;;5046225;27;89449;-74
2022/04/18 13:20:49;;;;;;;2.50;1.60;;;24.60;38.90;;;;;;5055237;27;88647;-73
2022/04/18 13:23:16;;;;;;;3.30;1.30;;;24.60;38.90;;;;;;5044908;27;90148;-73